Time;durP1;ratioP1;P1;durP2;ratioP2;P2;SDS_P1;SDS_P2;PMS_P1;PMS_P2;Temp;Humidity;BMP_temperature;BMP_pressure;BME280_temperature;BME280_humidity;BME280_pressure;Samples;Min_cycle;Max_cycle;Signal;HPM_P1;HPM_P2
2021/11/15 00:04:42;;;;;;;118.55;52.17;;;;;;;4.94;94.89;100121.17;4262390;83;21061;-81
2021/11/15 00:10:43;;;;;;;123.00;50.67;;;;;;;4.90;95.09;100121.02;4245171;82;21010;-81
2021/11/15 00:16:45;;;;;;;115.80;50.12;;;;;;;4.90;95.09;100128.34;4255183;83;21106;-82
2021/11/15 00:22:47;;;;;;;111.72;49.15;;;;;;;4.85;95.26;100127.92;4249771;83;21068;-81
2021/11/15 00:28:48;;;;;;;111.15;48.60;;;;;;;4.79;95.31;100128.59;4293507;81;21027;-81
2021/11/15 00:34:49;;;;;;;111.68;47.25;;;;;;;4.77;95.34;100132.73;4232033;83;21066;-81
2021/11/15 00:40:51;;;;;;;108.65;45.05;;;;;;;4.72;95.54;100140.98;4262854;81;20996;-81
2021/11/15 00:46:52;;;;;;;111.95;46.15;;;;;;;4.68;95.61;100142.16;4255596;81;21025;-81
2021/11/15 00:52:53;;;;;;;104.03;44.00;;;;;;;4.65;95.77;100143.34;4259028;81;21066;-81
2021/11/15 00:58:55;;;;;;;105.92;45.17;;;;;;;4.62;95.69;100143.94;4256518;82;21057;-81
2021/11/15 01:04:56;;;;;;;104.90;45.65;;;;;;;4.59;95.86;100139.94;4265306;82;21058;-80
2021/11/15 01:10:59;;;;;;;101.55;44.77;;;;;;;4.59;95.95;100140.48;4267956;81;21436;-81
2021/11/15 01:17:02;;;;;;;99.10;43.35;;;;;;;4.57;95.89;100142.15;4274121;82;21745;-81
2021/11/15 01:23:06;;;;;;;101.78;43.17;;;;;;;4.53;95.92;100142.53;4280636;82;21042;-81
2021/11/15 01:29:09;;;;;;;101.15;43.05;;;;;;;4.52;96.04;100147.72;4305297;81;21545;-81
2021/11/15 01:35:10;;;;;;;103.78;41.92;;;;;;;4.52;96.09;100149.07;4318517;81;22370;-80
2021/11/15 01:41:12;;;;;;;93.87;40.55;;;;;;;4.50;96.09;100159.95;4243766;83;21066;-81
2021/11/15 01:47:13;;;;;;;97.80;43.52;;;;;;;4.48;96.16;100158.91;4245181;81;21011;-81
2021/11/15 01:53:15;;;;;;;93.10;41.20;;;;;;;4.49;96.26;100170.56;4317142;81;20996;-81
2021/11/15 01:59:17;;;;;;;103.45;44.40;;;;;;;4.47;96.34;100174.94;4304058;81;21040;-81
2021/11/15 02:05:19;;;;;;;98.95;43.42;;;;;;;4.48;96.37;100177.08;4304036;81;20996;-81
2021/11/15 02:11:20;;;;;;;98.55;42.60;;;;;;;4.49;96.51;100176.80;4288994;81;22323;-82
2021/11/15 02:17:22;;;;;;;105.32;44.20;;;;;;;4.47;96.50;100165.45;4285450;81;21530;-81
2021/11/15 02:23:27;;;;;;;97.72;42.65;;;;;;;4.47;96.47;100171.42;4271287;81;21085;-81
2021/11/15 02:29:28;;;;;;;98.42;40.73;;;;;;;4.45;96.62;100179.86;4273867;81;21049;-81
2021/11/15 02:35:31;;;;;;;91.53;41.30;;;;;;;4.45;96.58;100179.86;4272562;81;21046;-82
2021/11/15 02:41:32;;;;;;;92.25;40.88;;;;;;;4.46;96.68;100172.54;4277367;81;21046;-81
2021/11/15 02:47:35;;;;;;;88.52;40.40;;;;;;;4.45;96.70;100182.57;4280249;81;21042;-82
2021/11/15 02:53:36;;;;;;;89.17;41.55;;;;;;;4.43;96.69;100180.71;4278601;81;21484;-81
2021/11/15 02:59:38;;;;;;;95.38;41.42;;;;;;;4.43;96.82;100183.42;4287306;81;21452;-81
2021/11/15 03:05:43;;;;;;;94.03;42.43;;;;;;;4.43;96.86;100187.49;4272737;81;20996;-82
2021/11/15 03:11:44;;;;;;;95.57;43.10;;;;;;;4.43;96.87;100191.55;4278384;81;21036;-82
2021/11/15 03:18:02;;;;;;;99.97;44.33;;;;;;;4.42;96.92;100195.39;4278233;81;21624;-81
2021/11/15 03:24:04;;;;;;;94.03;43.25;;;;;;;4.41;96.84;100198.41;4280111;82;20992;-81
2021/11/15 03:30:07;;;;;;;94.05;41.92;;;;;;;4.38;96.89;100203.89;4279358;82;21574;-82
2021/11/15 03:36:10;;;;;;;89.22;40.28;;;;;;;4.34;96.89;100198.81;4172981;82;28696;-82
2021/11/15 03:42:11;;;;;;;95.65;44.67;;;;;;;4.35;97.05;100195.56;4188182;84;21068;-82
2021/11/15 03:48:13;;;;;;;97.65;44.00;;;;;;;4.32;97.05;100201.02;4182265;84;21025;-81
2021/11/15 03:54:14;;;;;;;106.92;42.30;;;;;;;4.31;97.12;100194.00;4166035;84;21029;-81
2021/11/15 04:00:20;;;;;;;103.75;42.88;;;;;;;4.29;97.21;100200.85;4154836;84;21052;-81
2021/11/15 04:06:27;;;;;;;90.30;40.33;;;;;;;4.29;97.41;100193.50;4170173;84;21123;-81
2021/11/15 04:12:29;;;;;;;93.40;42.03;;;;;;;4.29;97.37;100190.79;4186114;83;21108;-81
2021/11/15 04:18:35;;;;;;;93.50;42.75;;;;;;;4.27;97.40;100194.92;4250109;83;21005;-82
2021/11/15 04:24:37;;;;;;;103.87;43.17;;;;;;;4.25;97.38;100197.13;4236905;83;21599;-82
2021/11/15 04:30:38;;;;;;;95.85;41.23;;;;;;;4.22;97.47;100195.84;4249755;83;20989;-81
2021/11/15 04:36:40;;;;;;;98.47;41.55;;;;;;;4.20;97.52;100185.84;4228180;83;20988;-81
2021/11/15 04:42:42;;;;;;;96.45;41.45;;;;;;;4.19;97.60;100180.73;4260552;83;21023;-80
2021/11/15 04:48:44;;;;;;;87.97;39.27;;;;;;;4.18;97.61;100183.20;4260486;83;21603;-81
2021/11/15 04:54:45;;;;;;;81.75;37.40;;;;;;;4.16;97.73;100182.70;4250138;83;21068;-82
2021/11/15 05:00:47;;;;;;;84.37;37.67;;;;;;;4.14;97.71;100191.67;4235873;83;21104;-80
2021/11/15 05:06:48;;;;;;;88.40;39.08;;;;;;;4.14;97.77;100191.67;4241596;83;21016;-81
2021/11/15 05:12:51;;;;;;;95.28;41.08;;;;;;;4.11;97.78;100190.39;4193615;83;21008;-82
2021/11/15 05:18:52;;;;;;;91.12;38.73;;;;;;;4.09;97.79;100186.36;4201304;83;21062;-81
2021/11/15 05:24:53;;;;;;;86.08;37.50;;;;;;;4.06;97.95;100182.36;4182584;84;20983;-81
2021/11/15 05:30:55;;;;;;;88.12;38.15;;;;;;;4.06;98.00;100186.42;4165034;84;21579;-80
2021/11/15 05:36:56;;;;;;;95.10;40.03;;;;;;;4.06;98.01;100184.25;4175768;84;20997;-82
2021/11/15 05:42:58;;;;;;;81.60;36.20;;;;;;;4.05;98.03;100186.19;4207505;83;21043;-81
2021/11/15 05:48:59;;;;;;;83.37;35.92;;;;;;;4.04;98.06;100194.62;4208351;83;21019;-81
2021/11/15 05:55:00;;;;;;;83.75;36.03;;;;;;;4.05;98.04;100200.27;4194600;84;21032;-82
2021/11/15 06:01:03;;;;;;;80.32;36.25;;;;;;;4.06;98.11;100204.58;4175971;84;21020;-81
2021/11/15 06:07:05;;;;;;;89.60;39.05;;;;;;;4.08;98.12;100207.25;4178194;84;20984;-82
2021/11/15 06:13:06;;;;;;;89.52;37.78;;;;;;;4.10;98.18;100213.72;4229350;83;21110;-82
2021/11/15 06:19:08;;;;;;;91.53;38.67;;;;;;;4.11;98.21;100221.55;4178645;84;21074;-82
2021/11/15 06:25:12;;;;;;;90.45;37.53;;;;;;;4.14;98.16;100219.59;4162757;84;21080;-81
2021/11/15 06:31:15;;;;;;;94.70;39.50;;;;;;;4.15;98.22;100224.47;4202885;83;21019;-81
2021/11/15 06:37:16;;;;;;;94.30;38.08;;;;;;;4.18;98.26;100227.34;4197351;83;21047;-82
2021/11/15 06:43:33;;;;;;;88.25;40.78;;;;;;;4.23;98.33;100225.08;4203003;83;21014;-81
2021/11/15 06:49:34;;;;;;;91.70;39.48;;;;;;;4.27;98.32;100224.20;4200656;83;21055;-81
2021/11/15 06:55:36;;;;;;;97.08;40.20;;;;;;;4.29;98.34;100221.96;4199398;83;21071;-81
2021/11/15 07:01:38;;;;;;;96.45;41.68;;;;;;;4.34;98.30;100229.18;4181165;84;21020;-81
2021/11/15 07:07:40;;;;;;;99.85;44.05;;;;;;;4.36;98.32;100235.11;4179610;84;21037;-81
2021/11/15 07:13:42;;;;;;;98.35;40.58;;;;;;;4.36;98.42;100228.33;4158634;84;21028;-81
2021/11/15 07:19:43;;;;;;;109.48;44.50;;;;;;;4.39;98.46;100232.59;4160684;85;20998;-80
2021/11/15 07:25:44;;;;;;;95.25;40.83;;;;;;;4.44;98.59;100239.81;4167057;85;21008;-81
2021/11/15 07:31:47;;;;;;;104.97;42.33;;;;;;;4.51;98.48;100242.93;4166016;84;21106;-81
2021/11/15 07:37:49;;;;;;;107.22;42.17;;;;;;;4.54;98.56;100244.45;4157306;85;20973;-81
2021/11/15 07:43:51;;;;;;;93.60;39.95;;;;;;;4.56;98.60;100244.15;4157537;85;21020;-82
2021/11/15 07:49:52;;;;;;;99.30;40.95;;;;;;;4.64;98.71;100242.08;4180500;85;21065;-82
2021/11/15 07:55:55;;;;;;;98.90;40.43;;;;;;;4.63;98.64;100237.22;4167560;85;21647;-82
2021/11/15 08:01:56;;;;;;;93.95;41.05;;;;;;;4.72;98.67;100244.06;4135652;85;21029;-82
2021/11/15 08:08:02;;;;;;;89.92;39.53;;;;;;;4.76;98.83;100243.14;4088368;86;21111;-83
2021/11/15 08:14:06;;;;;;;89.77;37.23;;;;;;;4.77;98.68;100244.77;4115286;85;22409;-83
2021/11/15 08:20:15;;;;;;;95.77;39.18;;;;;;;4.82;98.67;100247.91;4148380;84;21114;-82
2021/11/15 08:26:51;;;;;;;97.78;40.03;;;;;;;4.92;98.74;100248.23;4117624;85;21107;-83
2021/11/15 08:32:54;;;;;;;91.45;38.38;;;;;;;4.97;98.70;100253.52;4144118;84;21084;-83
2021/11/15 08:39:04;;;;;;;85.05;36.77;;;;;;;5.01;98.67;100253.98;4148147;84;21039;-82
2021/11/15 08:45:13;;;;;;;80.30;36.88;;;;;;;5.09;98.69;100253.20;4140780;84;21122;-81
2021/11/15 08:51:13;;;;;;;82.27;37.25;;;;;;;5.19;98.62;100257.59;4148985;85;21587;-81
2021/11/15 08:57:15;;;;;;;81.30;37.80;;;;;;;5.31;98.61;100261.93;4154799;85;21053;-82
2021/11/15 09:03:18;;;;;;;80.57;35.58;;;;;;;5.47;98.39;100262.58;4161365;85;21036;-82
2021/11/15 09:09:19;;;;;;;82.37;36.00;;;;;;;5.59;98.33;100263.38;4172398;84;21399;-82
2021/11/15 09:15:22;;;;;;;86.82;37.60;;;;;;;5.62;98.01;100261.39;4161367;84;21530;-82
2021/11/15 09:21:24;;;;;;;81.12;38.00;;;;;;;5.62;98.03;100266.25;4161951;85;21562;-80
2021/11/15 09:27:26;;;;;;;87.02;38.48;;;;;;;5.62;97.86;100270.91;4161832;85;21612;-81
2021/11/15 09:33:29;;;;;;;93.92;40.30;;;;;;;5.61;97.68;100262.48;4157658;85;21032;-82
2021/11/15 09:39:31;;;;;;;90.00;40.70;;;;;;;5.54;97.67;100260.23;4164231;85;20966;-81
2021/11/15 09:45:33;;;;;;;96.10;41.85;;;;;;;5.52;97.71;100265.72;4162024;84;21091;-82
2021/11/15 09:51:44;;;;;;;95.85;37.88;;;;;;;5.43;97.46;100270.30;4161736;85;21069;-82
2021/11/15 09:57:48;;;;;;;106.67;40.88;;;;;;;5.36;97.55;100264.49;4156006;84;21140;-81
2021/11/15 10:03:58;;;;;;;101.10;40.08;;;;;;;5.38;97.56;100256.84;4144897;84;21521;-82
2021/11/15 10:10:25;;;;;;;104.40;41.37;;;;;;;5.37;97.53;100253.32;4143362;84;21596;-82
2021/11/15 10:16:27;;;;;;;;;;;;;;;5.41;97.41;100249.44;4141322;85;21083;-82
2021/11/15 10:22:29;;;;;;;102.20;39.70;;;;;;;5.40;97.52;100251.38;4172055;85;20185;-81
2021/11/15 10:28:33;;;;;;;99.87;40.48;;;;;;;5.44;97.49;100241.48;4166686;84;21594;-82
2021/11/15 10:34:47;;;;;;;88.47;36.50;;;;;;;5.51;97.48;100239.69;4168327;84;21057;-82
2021/11/15 10:40:48;;;;;;;87.92;36.75;;;;;;;5.59;97.36;100245.72;4207364;83;21037;-82
2021/11/15 10:46:53;;;;;;;89.15;37.20;;;;;;;5.64;97.37;100247.73;4124718;85;21321;-81
2021/11/15 10:53:17;;;;;;;90.80;36.80;;;;;;;5.70;97.18;100243.77;4198354;83;21530;-81
2021/11/15 10:59:16;;;;;;;92.55;36.70;;;;;;;5.69;97.12;100253.03;4151684;84;21083;-82
2021/11/15 11:05:27;;;;;;;95.85;37.13;;;;;;;5.64;96.93;100252.36;4179608;84;21560;-81
2021/11/15 11:11:33;;;;;;;103.22;40.40;;;;;;;5.66;97.11;100246.87;4166233;84;21572;-82
2021/11/15 11:17:41;;;;;;;103.32;39.40;;;;;;;5.68;97.05;100249.27;4084261;85;21051;-82
2021/11/15 11:24:35;;;;;;;94.10;38.00;;;;;;;5.70;97.13;100249.77;4100252;85;21048;-82
2021/11/15 11:30:24;;;;;;;106.52;38.33;;;;;;;5.70;96.96;100241.63;4103171;85;21073;-81
2021/11/15 11:36:25;;;;;;;97.22;38.92;;;;;;;5.69;97.08;100246.25;4104969;85;21065;-80
2021/11/15 11:42:28;;;;;;;103.95;38.17;;;;;;;5.67;96.95;100240.89;4155395;84;21975;-83
2021/11/15 11:48:30;;;;;;;94.20;38.60;;;;;;;5.65;96.93;100241.75;4154920;84;21035;-82
2021/11/15 11:54:47;;;;;;;102.55;38.92;;;;;;;5.65;96.92;100241.75;4152134;84;21068;-82
2021/11/15 12:01:02;;;;;;;101.00;37.33;;;;;;;5.61;96.97;100234.78;4163461;84;21619;-82
2021/11/15 12:07:10;;;;;;;109.92;38.98;;;;;;;5.62;97.05;100233.66;4156795;84;20997;-83
2021/11/15 12:13:14;;;;;;;111.12;40.98;;;;;;;5.62;96.98;100235.59;4087766;85;21078;-83
2021/11/15 12:19:15;;;;;;;118.93;42.17;;;;;;;5.61;97.04;100241.56;4143862;84;21086;-81
2021/11/15 12:25:21;;;;;;;108.20;40.95;;;;;;;5.56;97.03;100236.84;4132755;84;21371;-82
2021/11/15 12:31:47;;;;;;;114.77;43.63;;;;;;;5.49;97.06;100238.63;4182361;85;21055;-81
2021/11/15 12:37:50;;;;;;;113.13;43.20;;;;;;;5.45;97.08;100236.28;4153118;84;21033;-82
2021/11/15 12:44:10;;;;;;;126.38;44.58;;;;;;;5.38;97.05;100240.01;4169972;84;21037;-84
2021/11/15 12:50:25;;;;;;;127.65;45.28;;;;;;;5.35;97.22;100241.98;4141956;84;21143;-83
2021/11/15 12:56:28;;;;;;;122.00;44.23;;;;;;;5.33;97.35;100231.98;4153775;84;21551;-83
2021/11/15 13:02:31;;;;;;;125.92;46.48;;;;;;;5.33;97.26;100233.34;4203997;83;21575;-82
2021/11/15 13:08:33;;;;;;;133.03;45.40;;;;;;;5.31;97.42;100231.48;4159859;84;21539;-83
2021/11/15 13:14:35;;;;;;;137.12;46.23;;;;;;;5.28;97.53;100237.54;4171150;84;21534;-81
2021/11/15 13:20:37;;;;;;;128.80;46.65;;;;;;;5.29;97.70;100234.28;4160120;84;21098;-81
2021/11/15 13:26:39;;;;;;;153.75;49.08;;;;;;;5.31;97.88;100234.20;4183231;83;21097;-82
2021/11/15 13:32:56;;;;;;;140.52;48.28;;;;;;;5.35;97.80;100228.41;4131482;84;21032;-81
2021/11/15 13:38:58;;;;;;;133.70;46.07;;;;;;;5.34;97.96;100226.01;4152074;85;21575;-82
2021/11/15 13:44:59;;;;;;;136.45;48.30;;;;;;;5.34;97.98;100224.08;4150099;84;21090;-82
2021/11/15 13:51:02;;;;;;;138.97;49.35;;;;;;;5.35;98.03;100225.70;4143715;84;21049;-81
2021/11/15 13:57:04;;;;;;;156.47;50.92;;;;;;;5.34;98.14;100237.66;4188220;84;21095;-82
2021/11/15 14:03:05;;;;;;;137.12;49.10;;;;;;;5.36;98.23;100234.08;4181961;84;21040;-84
2021/11/15 14:09:08;;;;;;;136.70;49.00;;;;;;;5.36;98.35;100228.65;4145201;84;21051;-82
2021/11/15 14:15:11;;;;;;;138.00;48.13;;;;;;;5.37;98.33;100228.10;4123694;84;22230;-83
2021/11/15 14:21:13;;;;;;;148.62;49.03;;;;;;;5.38;98.47;100230.50;4093378;86;21078;-82
2021/11/15 14:27:16;;;;;;;124.07;48.55;;;;;;;5.38;98.50;100225.08;4080326;86;21041;-83
2021/11/15 14:33:17;;;;;;;128.93;45.88;;;;;;;5.40;98.42;100229.65;4090808;86;21142;-82
2021/11/15 14:39:22;;;;;;;116.80;44.77;;;;;;;5.40;98.55;100236.44;4087722;86;21105;-82
2021/11/15 14:45:24;;;;;;;128.78;46.83;;;;;;;5.42;98.65;100236.91;4079905;86;21062;-82
2021/11/15 14:51:27;;;;;;;126.97;46.53;;;;;;;5.45;98.53;100235.50;4088242;85;21051;-82
2021/11/15 14:57:38;;;;;;;133.20;49.05;;;;;;;5.46;98.51;100231.66;4088273;85;21087;-83
2021/11/15 15:03:40;;;;;;;122.60;43.83;;;;;;;5.46;98.60;100243.34;4088814;86;21075;-82
2021/11/15 15:09:42;;;;;;;125.78;45.28;;;;;;;5.48;98.60;100241.66;4085568;86;21032;-84
2021/11/15 15:15:44;;;;;;;121.05;45.40;;;;;;;5.51;98.60;100239.69;4113138;84;21575;-83
2021/11/15 15:21:46;;;;;;;111.22;43.68;;;;;;;5.52;98.47;100238.01;4151536;84;21046;-83
2021/11/15 15:27:49;;;;;;;103.65;42.13;;;;;;;5.54;98.49;100246.66;4132796;84;21157;-83
2021/11/15 15:33:52;;;;;;;105.65;44.70;;;;;;;5.58;98.40;100251.70;4162333;84;21536;-83
2021/11/15 15:39:54;;;;;;;114.97;44.15;;;;;;;5.60;98.34;100251.39;4181527;84;21000;-83
2021/11/15 15:45:56;;;;;;;104.20;43.95;;;;;;;5.62;98.36;100249.17;4180644;84;21023;-82
2021/11/15 15:51:59;;;;;;;109.80;44.15;;;;;;;5.64;98.27;100250.45;4181772;84;21020;-83
2021/11/15 15:58:02;;;;;;;104.38;43.68;;;;;;;5.64;98.18;100242.30;4168995;84;21063;-83
2021/11/15 16:04:20;;;;;;;108.90;43.80;;;;;;;5.68;98.10;100241.13;4137163;84;21567;-83
2021/11/15 16:10:34;;;;;;;102.02;43.45;;;;;;;5.71;98.04;100248.65;4142132;84;21433;-85
2021/11/15 16:17:17;;;;;;;108.90;44.95;;;;;;;5.73;98.00;100245.85;4142905;84;21130;-83
2021/11/15 16:22:43;;;;;;;125.17;48.40;;;;;;;5.75;97.90;100244.18;4146921;84;21026;-82
2021/11/15 16:28:45;;;;;;;135.05;56.98;;;;;;;5.73;97.90;100248.56;4178353;85;21082;-84
2021/11/15 16:34:59;;;;;;;;;;;;;;;;;;;;;
2021/11/15 16:40:55;;;;;;;117.72;49.58;;;;;;;5.71;97.87;100245.94;4171127;84;21057;-83
2021/11/15 16:46:59;;;;;;;114.95;49.88;;;;;;;5.71;97.88;100254.89;4170877;84;21056;-83
2021/11/15 16:53:00;;;;;;;109.65;48.98;;;;;;;5.71;97.88;100257.61;4151971;84;21256;-84
2021/11/15 16:59:04;;;;;;;121.50;52.45;;;;;;;5.71;97.81;100250.81;4151195;84;21465;-84
2021/11/15 17:05:07;;;;;;;165.82;73.97;;;;;;;5.69;97.81;100266.63;4186647;84;21000;-84
2021/11/15 17:11:12;;;;;;;133.57;61.55;;;;;;;5.70;97.81;100264.72;4178704;84;21057;-84
2021/11/15 17:17:14;;;;;;;137.95;62.78;;;;;;;5.69;97.83;100263.91;4156386;84;21544;-84
2021/11/15 17:23:16;;;;;;;151.22;69.17;;;;;;;5.71;97.82;100264.95;4142802;84;21086;-82
2021/11/15 17:29:18;;;;;;;131.50;66.53;;;;;;;5.73;97.89;100271.66;4173102;84;21048;-83
2021/11/15 17:35:19;;;;;;;188.00;89.22;;;;;;;5.75;97.80;100274.06;4169117;84;21031;-83
2021/11/15 17:41:21;;;;;;;133.25;62.27;;;;;;;5.75;97.79;100274.06;4166936;84;21039;-82
2021/11/15 17:47:27;;;;;;;119.45;54.85;;;;;;;5.75;97.75;100269.99;4157032;84;21596;-84
2021/11/15 17:53:39;;;;;;;118.28;54.42;;;;;;;5.74;97.74;100265.13;4158500;84;21004;-83
2021/11/15 17:59:36;;;;;;;119.87;53.20;;;;;;;5.76;97.77;100259.39;4166998;84;22183;-83
2021/11/15 18:05:39;;;;;;;113.20;51.10;;;;;;;5.77;97.73;100253.64;4160333;84;21553;-83
2021/11/15 18:11:42;;;;;;;110.12;52.95;;;;;;;5.74;97.67;100246.11;4179509;84;21039;-83
2021/11/15 18:17:48;;;;;;;112.55;52.25;;;;;;;5.78;97.63;100255.81;4169621;84;21072;-83
2021/11/15 18:23:51;;;;;;;125.50;54.88;;;;;;;5.78;97.69;100248.44;4121356;85;21614;-83
2021/11/15 18:29:54;;;;;;;132.82;62.33;;;;;;;5.77;97.60;100250.92;4168265;84;21039;-83
2021/11/15 18:35:56;;;;;;;119.57;54.70;;;;;;;5.75;97.58;100255.05;4146321;85;21029;-82
2021/11/15 18:41:58;;;;;;;125.27;56.70;;;;;;;5.76;97.58;100243.86;4149222;85;21057;-83
2021/11/15 18:47:59;;;;;;;120.80;56.30;;;;;;;5.75;97.58;100243.63;4165869;85;21059;-83
2021/11/15 18:54:00;;;;;;;109.57;52.13;;;;;;;5.74;97.51;100248.83;4244786;83;21028;-83
2021/11/15 19:00:07;;;;;;;110.05;52.67;;;;;;;5.75;97.57;100246.89;4241295;83;21032;-83
2021/11/15 19:06:08;;;;;;;;;;;;;;;5.75;97.59;100243.63;4240939;83;21141;-82
2021/11/15 19:12:13;;;;;;;152.45;67.97;;;;;;;5.77;97.58;100248.20;4235766;83;20140;-82
2021/11/15 19:18:13;;;;;;;138.75;66.45;;;;;;;5.78;97.44;100249.80;4245780;83;21040;-84
2021/11/15 19:24:15;;;;;;;123.97;58.58;;;;;;;5.77;97.50;100246.84;4225795;83;21027;-83
2021/11/15 19:30:21;;;;;;;112.65;54.05;;;;;;;5.80;97.42;100253.02;4232891;83;21582;-83
2021/11/15 19:36:23;;;;;;;112.45;54.53;;;;;;;5.78;97.25;100247.66;4143266;84;21761;-84
2021/11/15 19:42:24;;;;;;;103.53;51.00;;;;;;;5.73;97.28;100252.64;4156427;84;21331;-83
2021/11/15 19:48:25;;;;;;;105.00;52.33;;;;;;;5.73;97.29;100255.36;4180883;85;21024;-83
2021/11/15 19:54:27;;;;;;;110.45;52.70;;;;;;;5.73;97.24;100250.50;4179982;84;21479;-83
2021/11/15 20:00:37;;;;;;;95.75;46.60;;;;;;;5.74;97.28;100248.83;4171642;85;21652;-82
2021/11/15 20:06:38;;;;;;;100.67;48.87;;;;;;;5.72;97.19;100258.39;4241756;83;21971;-83
2021/11/15 20:12:40;;;;;;;108.70;53.08;;;;;;;5.72;97.22;100249.69;4226730;83;20983;-83
2021/11/15 20:18:44;;;;;;;100.45;51.40;;;;;;;5.72;97.17;100251.05;4262646;81;21287;-82
2021/11/15 20:24:45;;;;;;;101.97;52.60;;;;;;;5.73;97.18;100247.78;4185820;84;21052;-83
2021/11/15 20:30:54;;;;;;;110.37;52.53;;;;;;;5.71;97.09;100256.80;4180467;85;21428;-82
2021/11/15 20:36:55;;;;;;;97.50;47.03;;;;;;;5.72;97.05;100263.28;4182624;83;21027;-82
2021/11/15 20:42:59;;;;;;;81.92;40.35;;;;;;;5.72;97.00;100254.31;4159129;84;21098;-83
2021/11/15 20:49:05;;;;;;;104.75;52.43;;;;;;;5.73;96.87;100255.36;4132332;84;21568;-83
2021/11/15 20:55:11;;;;;;;110.28;53.75;;;;;;;5.71;96.88;100245.94;4158648;84;21102;-83
2021/11/15 21:01:12;;;;;;;106.12;49.80;;;;;;;5.70;96.95;100247.05;4147860;84;21070;-84
2021/11/15 21:07:14;;;;;;;103.15;50.70;;;;;;;5.70;97.00;100242.41;4148110;84;21543;-83
2021/11/15 21:13:15;;;;;;;98.07;48.10;;;;;;;5.71;96.86;100237.23;4167448;84;21065;-84
2021/11/15 21:19:22;;;;;;;92.33;45.28;;;;;;;5.70;96.87;100234.25;4148097;84;21055;-83
2021/11/15 21:25:20;;;;;;;83.40;43.33;;;;;;;5.70;96.80;100221.25;4158249;84;21075;-83
2021/11/15 21:31:25;;;;;;;91.95;42.80;;;;;;;5.72;96.79;100224.43;4149219;84;21049;-83
2021/11/15 21:37:26;;;;;;;92.72;47.62;;;;;;;5.71;96.67;100210.61;4167645;84;21020;-83
2021/11/15 21:43:28;;;;;;;113.80;57.27;;;;;;;5.68;96.68;100222.92;4152512;84;21069;-83
2021/11/15 21:49:29;;;;;;;98.62;48.52;;;;;;;5.67;96.66;100223.23;4173509;84;21008;-83
2021/11/15 21:55:32;;;;;;;97.67;44.83;;;;;;;5.68;96.64;100216.67;4176418;84;21049;-83
2021/11/15 22:01:36;;;;;;;85.77;39.13;;;;;;;5.66;96.54;100221.61;4171310;84;21009;-84
2021/11/15 22:07:41;;;;;;;66.97;33.85;;;;;;;5.68;96.45;100221.56;4175731;84;21043;-84
2021/11/15 22:13:43;;;;;;;71.57;36.10;;;;;;;5.66;96.45;100204.77;4173106;84;21588;-82
2021/11/15 22:19:45;;;;;;;67.92;32.67;;;;;;;5.63;96.38;100220.88;4170115;84;21041;-82
2021/11/15 22:25:48;;;;;;;65.25;33.70;;;;;;;5.65;96.33;100211.87;4168643;84;21037;-83
2021/11/15 22:31:50;;;;;;;62.00;31.10;;;;;;;5.68;96.29;100217.48;4175461;84;21024;-83
2021/11/15 22:37:51;;;;;;;65.85;33.65;;;;;;;5.70;96.23;100219.89;4173245;84;21012;-83
2021/11/15 22:43:53;;;;;;;68.02;33.67;;;;;;;5.66;96.10;100212.91;4214941;83;21108;-83
2021/11/15 22:49:54;;;;;;;63.35;32.17;;;;;;;5.70;96.07;100210.37;4174300;84;21088;-83
2021/11/15 22:55:56;;;;;;;66.07;31.73;;;;;;;5.72;96.08;100207.58;4170726;84;21057;-82
2021/11/15 23:01:57;;;;;;;67.70;31.95;;;;;;;5.73;95.99;100213.83;4125384;85;21041;-82
2021/11/15 23:07:59;;;;;;;56.02;28.20;;;;;;;5.71;95.92;100203.81;4165554;84;21382;-81
2021/11/15 23:14:00;;;;;;;66.97;32.33;;;;;;;5.71;96.19;100208.70;4161705;84;21561;-82
2021/11/15 23:20:05;;;;;;;69.55;32.58;;;;;;;5.71;96.19;100203.81;4150515;84;21109;-82
2021/11/15 23:26:09;;;;;;;65.40;30.08;;;;;;;5.68;95.93;100193.58;4156031;84;21106;-82
2021/11/15 23:32:11;;;;;;;67.08;31.40;;;;;;;5.64;95.99;100194.76;4201698;83;21039;-82
2021/11/15 23:38:13;;;;;;;65.75;31.00;;;;;;;5.62;96.24;100185.33;4215867;83;21089;-82
2021/11/15 23:44:15;;;;;;;60.67;31.00;;;;;;;5.61;96.11;100181.80;4141131;84;21492;-81
2021/11/15 23:50:16;;;;;;;57.90;30.57;;;;;;;5.60;96.01;100186.20;4145710;84;21070;-82
2021/11/15 23:56:18;;;;;;;64.72;32.58;;;;;;;5.62;95.90;100186.69;4165394;84;21049;-82
